Amasa, MI

2:47 AM CDT on May 24, 2019 (GMT -0500)
Bates Tower | | Change Station
Active Advisory: Flood Advisory Active Notice: Flood Advisory

Elev 1765 ft 46.10 °N, 88.54 °W | Updated 2 minutes ago

Overcast
Overcast
45.3 °F
Feels Like 43 °F
N
4
Wind Variable Wind from North
Gusts 7.0 mph

Today
High -- | Low -- °F
--% Chance of Precip.
Yesterday
High -- | Low -- °F
Precip. -- in
Pressure 30.12 in
Visibility 10.0 miles
Clouds Mostly Cloudy 2100 ft
Windchill 43 °F
Dew Point 44 °F
Humidity 94%
Rainfall 0.00 in
Snow Depth Not available.
5:11 AM 8:30 PM
Waning Gibbous, 72% visible
METAR KIMT 240654Z AUTO 36004KT 10SM BKN021 09/07 A3011 RMK AO2 SLP198 T00890067
Pressure 30.12 in
Visibility 10.0 miles
Clouds Mostly Cloudy 2100 ft
Windchill 43 °F
Dew Point 44 °F
Humidity 94%
Rainfall 0.00 in
Snow Depth Not available.
5:11 AM 8:30 PM
Waning Gibbous, 72% visible
METAR KIMT 240654Z AUTO 36004KT 10SM BKN021 09/07 A3011 RMK AO2 SLP198 T00890067

Get Your Daily Forecast Email!

Thanks for signing up!

Be on the lookout for a verification email in your inbox.

You'll start receiving severe weather alerts in your inbox..

×

10-Day Weather Forecast

Almanac

Astronomy

May. 24, 2019 Rise Set
Actual Time
Civil Twilight
Nautical Twilight
Astronomical Twilight
Moon
Length of Visible Light
Length of Day
Tomorrow will be .
, % of the Moon is Illuminated

Today's Extremes

State Highs State Lows

Community

WunderPhotos

Category 6

Welcome to Category 6. This is the collective home for Weather Underground's featured writeups by Dr. Jeff Masters (right), Bob Henson (left), Chris Burt, and other regular contributors.

Nearby

Air Quality

  Air Quality AQ Index Pollutant
Not available.

Snow Depth

Station Depth Elevation

Earthquake Activity

City Distance Mag. Time & Date
Minimum magnitude displayed is 2.5.

Coastal Water Temperatures

Place Temperature

Stations

Nearby Weather Stations

Station Location Temp. Windchill Dew Point Humidity Wind Precip. Elev Updated Type
                   

Watches & Warnings

Flood Advisory
Issued: 8:34 AM CDT May. 23, 2019 – National Weather Service

The flood advisory continues for
the Michigamme river near Crystal Falls
* until further notice.
* At 7 am Thursday the stage was 7.4 feet.
* Bankfull stage is 7.0 feet.
* Flood stage is 8.0 feet.
* At 8.0 feet... 3700 cfs - river begins to flood additional low lying
areas along the river bank.
* At 7.0 feet... 2700 cfs - river exceeds bankfull stage.


Lat... Lon 4604 8821 4612 8828 4614 8817 4607 8812



Jss